sensor_id;sensor_type;location;lat;lon;timestamp;temperature;humidity
51215;DHT22;63849;47.546;19.254;2024-01-16T00:01:18;0.70;73.90
51215;DHT22;63849;47.546;19.254;2024-01-16T00:03:45;0.60;73.80
51215;DHT22;63849;47.546;19.254;2024-01-16T00:06:11;0.60;73.80
51215;DHT22;63849;47.546;19.254;2024-01-16T00:08:37;0.60;73.70
51215;DHT22;63849;47.546;19.254;2024-01-16T00:11:03;0.50;73.70
51215;DHT22;63849;47.546;19.254;2024-01-16T00:13:29;0.60;73.60
51215;DHT22;63849;47.546;19.254;2024-01-16T00:15:54;0.50;73.80
51215;DHT22;63849;47.546;19.254;2024-01-16T00:18:22;0.50;73.70
51215;DHT22;63849;47.546;19.254;2024-01-16T00:20:48;0.60;73.40
51215;DHT22;63849;47.546;19.254;2024-01-16T00:23:14;0.50;73.50
51215;DHT22;63849;47.546;19.254;2024-01-16T00:25:39;0.50;73.60
51215;DHT22;63849;47.546;19.254;2024-01-16T00:28:05;0.50;73.60
51215;DHT22;63849;47.546;19.254;2024-01-16T00:30:31;0.50;73.60
51215;DHT22;63849;47.546;19.254;2024-01-16T00:32:57;0.50;73.40
51215;DHT22;63849;47.546;19.254;2024-01-16T00:35:23;0.50;73.80
51215;DHT22;63849;47.546;19.254;2024-01-16T00:37:48;0.50;73.80
51215;DHT22;63849;47.546;19.254;2024-01-16T00:40:14;0.50;73.90
51215;DHT22;63849;47.546;19.254;2024-01-16T00:42:40;0.50;73.90
51215;DHT22;63849;47.546;19.254;2024-01-16T00:45:06;0.50;74.00
51215;DHT22;63849;47.546;19.254;2024-01-16T00:47:32;0.50;73.80
51215;DHT22;63849;47.546;19.254;2024-01-16T00:49:58;0.50;74.10
51215;DHT22;63849;47.546;19.254;2024-01-16T00:52:26;0.60;73.90
51215;DHT22;63849;47.546;19.254;2024-01-16T00:54:51;0.60;73.80
51215;DHT22;63849;47.546;19.254;2024-01-16T00:57:17;0.60;74.00
51215;DHT22;63849;47.546;19.254;2024-01-16T00:59:45;0.60;74.00
51215;DHT22;63849;47.546;19.254;2024-01-16T01:02:11;0.70;74.00
51215;DHT22;63849;47.546;19.254;2024-01-16T01:04:37;0.70;74.10
51215;DHT22;63849;47.546;19.254;2024-01-16T01:07:03;0.80;74.10
51215;DHT22;63849;47.546;19.254;2024-01-16T01:09:32;0.80;74.10
51215;DHT22;63849;47.546;19.254;2024-01-16T01:11:57;0.90;74.10
51215;DHT22;63849;47.546;19.254;2024-01-16T01:14:23;0.80;74.10
51215;DHT22;63849;47.546;19.254;2024-01-16T01:16:51;1.00;73.90
51215;DHT22;63849;47.546;19.254;2024-01-16T01:19:16;1.00;73.80
51215;DHT22;63849;47.546;19.254;2024-01-16T01:21:42;1.00;73.70
51215;DHT22;63849;47.546;19.254;2024-01-16T01:24:08;0.90;73.90
51215;DHT22;63849;47.546;19.254;2024-01-16T01:26:34;0.90;73.80
51215;DHT22;63849;47.546;19.254;2024-01-16T01:29:00;0.80;73.70
51215;DHT22;63849;47.546;19.254;2024-01-16T01:31:26;0.80;73.90
51215;DHT22;63849;47.546;19.254;2024-01-16T01:33:52;0.80;73.70
51215;DHT22;63849;47.546;19.254;2024-01-16T01:36:17;0.80;74.10
51215;DHT22;63849;47.546;19.254;2024-01-16T01:38:43;0.70;74.20
51215;DHT22;63849;47.546;19.254;2024-01-16T01:41:09;0.80;74.10
51215;DHT22;63849;47.546;19.254;2024-01-16T01:43:37;0.80;73.80
51215;DHT22;63849;47.546;19.254;2024-01-16T01:46:13;0.70;73.80
51215;DHT22;63849;47.546;19.254;2024-01-16T01:48:41;0.70;73.90
51215;DHT22;63849;47.546;19.254;2024-01-16T01:51:08;0.70;74.10
51215;DHT22;63849;47.546;19.254;2024-01-16T01:53:34;0.70;73.90
51215;DHT22;63849;47.546;19.254;2024-01-16T01:56:04;0.70;73.80
51215;DHT22;63849;47.546;19.254;2024-01-16T01:58:36;0.80;73.60
51215;DHT22;63849;47.546;19.254;2024-01-16T02:01:04;0.70;73.40
51215;DHT22;63849;47.546;19.254;2024-01-16T02:03:42;0.70;73.40
51215;DHT22;63849;47.546;19.254;2024-01-16T02:06:08;0.70;73.10
51215;DHT22;63849;47.546;19.254;2024-01-16T02:08:34;0.70;73.00
51215;DHT22;63849;47.546;19.254;2024-01-16T02:11:00;0.60;72.90
51215;DHT22;63849;47.546;19.254;2024-01-16T02:13:25;0.60;73.00
51215;DHT22;63849;47.546;19.254;2024-01-16T02:15:51;0.70;73.00
51215;DHT22;63849;47.546;19.254;2024-01-16T02:18:17;0.70;72.70
51215;DHT22;63849;47.546;19.254;2024-01-16T02:20:44;0.70;72.60
51215;DHT22;63849;47.546;19.254;2024-01-16T02:23:10;0.70;72.60
51215;DHT22;63849;47.546;19.254;2024-01-16T02:25:38;0.70;72.50
51215;DHT22;63849;47.546;19.254;2024-01-16T02:28:04;0.60;72.50
51215;DHT22;63849;47.546;19.254;2024-01-16T02:30:29;0.70;72.40
51215;DHT22;63849;47.546;19.254;2024-01-16T02:32:56;0.60;72.50
51215;DHT22;63849;47.546;19.254;2024-01-16T02:35:21;0.70;72.40
51215;DHT22;63849;47.546;19.254;2024-01-16T02:37:47;0.60;72.40
51215;DHT22;63849;47.546;19.254;2024-01-16T02:40:12;0.70;72.40
51215;DHT22;63849;47.546;19.254;2024-01-16T02:42:39;0.70;72.40
51215;DHT22;63849;47.546;19.254;2024-01-16T02:45:05;0.60;72.40
51215;DHT22;63849;47.546;19.254;2024-01-16T02:47:31;0.60;72.40
51215;DHT22;63849;47.546;19.254;2024-01-16T02:49:58;0.60;72.60
51215;DHT22;63849;47.546;19.254;2024-01-16T02:52:23;0.70;72.50
51215;DHT22;63849;47.546;19.254;2024-01-16T02:54:49;0.60;72.60
51215;DHT22;63849;47.546;19.254;2024-01-16T02:57:15;0.60;72.80
51215;DHT22;63849;47.546;19.254;2024-01-16T02:59:43;0.50;72.90
51215;DHT22;63849;47.546;19.254;2024-01-16T03:02:09;0.60;72.80
51215;DHT22;63849;47.546;19.254;2024-01-16T03:04:35;0.60;72.80
51215;DHT22;63849;47.546;19.254;2024-01-16T03:07:01;0.60;72.90
51215;DHT22;63849;47.546;19.254;2024-01-16T03:09:26;0.60;73.00
51215;DHT22;63849;47.546;19.254;2024-01-16T03:11:52;0.70;72.90
51215;DHT22;63849;47.546;19.254;2024-01-16T03:14:18;0.70;72.90
51215;DHT22;63849;47.546;19.254;2024-01-16T03:16:44;0.60;73.10
51215;DHT22;63849;47.546;19.254;2024-01-16T03:19:10;0.70;73.10
51215;DHT22;63849;47.546;19.254;2024-01-16T03:21:37;0.70;73.00
51215;DHT22;63849;47.546;19.254;2024-01-16T03:24:04;0.60;72.90
51215;DHT22;63849;47.546;19.254;2024-01-16T03:26:31;0.60;73.10
51215;DHT22;63849;47.546;19.254;2024-01-16T03:28:56;0.60;73.40
51215;DHT22;63849;47.546;19.254;2024-01-16T03:31:22;0.50;73.50
51215;DHT22;63849;47.546;19.254;2024-01-16T03:33:48;0.50;73.40
51215;DHT22;63849;47.546;19.254;2024-01-16T03:36:14;0.50;73.70
51215;DHT22;63849;47.546;19.254;2024-01-16T03:38:42;0.50;73.70
51215;DHT22;63849;47.546;19.254;2024-01-16T03:41:10;0.50;73.50
51215;DHT22;63849;47.546;19.254;2024-01-16T03:43:36;0.40;73.40
51215;DHT22;63849;47.546;19.254;2024-01-16T03:46:02;0.40;73.50
51215;DHT22;63849;47.546;19.254;2024-01-16T03:48:27;0.40;73.20
51215;DHT22;63849;47.546;19.254;2024-01-16T03:50:53;0.40;73.30
51215;DHT22;63849;47.546;19.254;2024-01-16T03:53:22;0.40;73.10
51215;DHT22;63849;47.546;19.254;2024-01-16T03:55:48;0.40;72.80
51215;DHT22;63849;47.546;19.254;2024-01-16T03:58:16;0.50;72.70
51215;DHT22;63849;47.546;19.254;2024-01-16T04:00:41;0.50;72.40
51215;DHT22;63849;47.546;19.254;2024-01-16T04:03:07;0.50;72.20
51215;DHT22;63849;47.546;19.254;2024-01-16T04:05:33;0.40;72.10
51215;DHT22;63849;47.546;19.254;2024-01-16T04:07:59;0.50;72.10
51215;DHT22;63849;47.546;19.254;2024-01-16T04:10:25;0.50;72.00
51215;DHT22;63849;47.546;19.254;2024-01-16T04:12:51;0.40;72.00
51215;DHT22;63849;47.546;19.254;2024-01-16T04:15:16;0.50;71.90
51215;DHT22;63849;47.546;19.254;2024-01-16T04:17:42;0.40;71.60
51215;DHT22;63849;47.546;19.254;2024-01-16T04:20:08;0.50;71.60
51215;DHT22;63849;47.546;19.254;2024-01-16T04:22:35;0.50;71.20
51215;DHT22;63849;47.546;19.254;2024-01-16T04:25:01;0.50;71.00
51215;DHT22;63849;47.546;19.254;2024-01-16T04:27:26;0.50;71.00
51215;DHT22;63849;47.546;19.254;2024-01-16T04:29:52;0.40;70.90
51215;DHT22;63849;47.546;19.254;2024-01-16T04:32:18;0.50;70.60
51215;DHT22;63849;47.546;19.254;2024-01-16T04:34:44;0.50;70.50
51215;DHT22;63849;47.546;19.254;2024-01-16T04:37:10;0.50;70.10
51215;DHT22;63849;47.546;19.254;2024-01-16T04:39:35;0.50;70.20
51215;DHT22;63849;47.546;19.254;2024-01-16T04:42:01;0.50;69.80
51215;DHT22;63849;47.546;19.254;2024-01-16T04:44:27;0.50;69.30
51215;DHT22;63849;47.546;19.254;2024-01-16T04:46:52;0.60;69.50
51215;DHT22;63849;47.546;19.254;2024-01-16T04:49:18;0.60;69.40
51215;DHT22;63849;47.546;19.254;2024-01-16T04:51:43;0.60;69.30
51215;DHT22;63849;47.546;19.254;2024-01-16T04:54:11;0.60;69.30
51215;DHT22;63849;47.546;19.254;2024-01-16T04:56:37;0.60;69.10
51215;DHT22;63849;47.546;19.254;2024-01-16T04:59:03;0.60;68.90
51215;DHT22;63849;47.546;19.254;2024-01-16T05:01:28;0.60;68.70
51215;DHT22;63849;47.546;19.254;2024-01-16T05:03:54;0.60;68.80
51215;DHT22;63849;47.546;19.254;2024-01-16T05:06:20;0.60;68.90
51215;DHT22;63849;47.546;19.254;2024-01-16T05:08:46;0.60;68.80
51215;DHT22;63849;47.546;19.254;2024-01-16T05:11:11;0.60;68.60
51215;DHT22;63849;47.546;19.254;2024-01-16T05:13:37;0.60;68.70
51215;DHT22;63849;47.546;19.254;2024-01-16T05:16:03;0.60;68.60
51215;DHT22;63849;47.546;19.254;2024-01-16T05:18:28;0.60;68.50
51215;DHT22;63849;47.546;19.254;2024-01-16T05:20:54;0.60;68.50
51215;DHT22;63849;47.546;19.254;2024-01-16T05:23:21;0.60;68.50
51215;DHT22;63849;47.546;19.254;2024-01-16T05:25:47;0.60;68.50
51215;DHT22;63849;47.546;19.254;2024-01-16T05:28:13;0.50;68.50
51215;DHT22;63849;47.546;19.254;2024-01-16T05:30:38;0.60;68.40
51215;DHT22;63849;47.546;19.254;2024-01-16T05:33:04;0.50;68.40
51215;DHT22;63849;47.546;19.254;2024-01-16T05:35:29;0.60;68.30
51215;DHT22;63849;47.546;19.254;2024-01-16T05:37:56;0.60;68.30
51215;DHT22;63849;47.546;19.254;2024-01-16T05:40:22;0.60;68.00
51215;DHT22;63849;47.546;19.254;2024-01-16T05:42:51;0.60;67.90
51215;DHT22;63849;47.546;19.254;2024-01-16T05:45:17;0.60;67.80
51215;DHT22;63849;47.546;19.254;2024-01-16T05:47:43;0.50;67.80
51215;DHT22;63849;47.546;19.254;2024-01-16T05:50:09;0.60;67.60
51215;DHT22;63849;47.546;19.254;2024-01-16T05:52:35;0.60;67.70
51215;DHT22;63849;47.546;19.254;2024-01-16T05:55:01;0.60;67.90
51215;DHT22;63849;47.546;19.254;2024-01-16T05:57:30;0.60;67.60
51215;DHT22;63849;47.546;19.254;2024-01-16T05:59:59;0.60;67.40
51215;DHT22;63849;47.546;19.254;2024-01-16T06:02:24;0.60;67.30
51215;DHT22;63849;47.546;19.254;2024-01-16T06:04:50;0.70;67.10
51215;DHT22;63849;47.546;19.254;2024-01-16T06:07:16;0.60;67.00
51215;DHT22;63849;47.546;19.254;2024-01-16T06:09:41;0.50;66.90
51215;DHT22;63849;47.546;19.254;2024-01-16T06:12:08;0.50;67.00
51215;DHT22;63849;47.546;19.254;2024-01-16T06:14:34;0.50;66.90
51215;DHT22;63849;47.546;19.254;2024-01-16T06:17:00;0.50;66.80
51215;DHT22;63849;47.546;19.254;2024-01-16T06:19:26;0.60;66.80
51215;DHT22;63849;47.546;19.254;2024-01-16T06:21:52;0.60;66.50
51215;DHT22;63849;47.546;19.254;2024-01-16T06:24:18;0.50;66.50
51215;DHT22;63849;47.546;19.254;2024-01-16T06:26:44;0.60;66.50
51215;DHT22;63849;47.546;19.254;2024-01-16T06:29:09;0.50;66.40
51215;DHT22;63849;47.546;19.254;2024-01-16T06:31:35;0.60;66.40
51215;DHT22;63849;47.546;19.254;2024-01-16T06:34:01;0.60;66.40
51215;DHT22;63849;47.546;19.254;2024-01-16T06:36:26;0.50;66.40
51215;DHT22;63849;47.546;19.254;2024-01-16T06:38:52;0.50;66.30
51215;DHT22;63849;47.546;19.254;2024-01-16T06:41:18;0.50;66.50
51215;DHT22;63849;47.546;19.254;2024-01-16T06:43:43;0.50;66.40
51215;DHT22;63849;47.546;19.254;2024-01-16T06:46:09;0.50;66.30
51215;DHT22;63849;47.546;19.254;2024-01-16T06:48:36;0.50;66.20
51215;DHT22;63849;47.546;19.254;2024-01-16T06:51:02;0.50;66.40
51215;DHT22;63849;47.546;19.254;2024-01-16T06:53:28;0.50;65.90
51215;DHT22;63849;47.546;19.254;2024-01-16T06:55:54;0.50;66.10
51215;DHT22;63849;47.546;19.254;2024-01-16T06:58:19;0.50;66.20
51215;DHT22;63849;47.546;19.254;2024-01-16T07:00:46;0.60;66.10
51215;DHT22;63849;47.546;19.254;2024-01-16T07:03:12;0.60;65.80
51215;DHT22;63849;47.546;19.254;2024-01-16T07:05:39;0.50;65.90
51215;DHT22;63849;47.546;19.254;2024-01-16T07:08:06;0.50;65.60
51215;DHT22;63849;47.546;19.254;2024-01-16T07:10:33;0.60;65.50
51215;DHT22;63849;47.546;19.254;2024-01-16T07:12:59;0.60;65.60
51215;DHT22;63849;47.546;19.254;2024-01-16T07:15:25;0.60;65.30
51215;DHT22;63849;47.546;19.254;2024-01-16T07:17:51;0.60;65.40
51215;DHT22;63849;47.546;19.254;2024-01-16T07:20:16;0.70;65.30
51215;DHT22;63849;47.546;19.254;2024-01-16T07:22:42;0.70;65.10
51215;DHT22;63849;47.546;19.254;2024-01-16T07:25:08;0.60;65.10
51215;DHT22;63849;47.546;19.254;2024-01-16T07:27:34;0.70;65.20
51215;DHT22;63849;47.546;19.254;2024-01-16T07:30:00;0.70;64.90
51215;DHT22;63849;47.546;19.254;2024-01-16T07:32:26;0.70;65.00
51215;DHT22;63849;47.546;19.254;2024-01-16T07:34:52;0.80;65.20
51215;DHT22;63849;47.546;19.254;2024-01-16T07:37:18;0.80;65.00
51215;DHT22;63849;47.546;19.254;2024-01-16T07:39:44;0.80;64.70
51215;DHT22;63849;47.546;19.254;2024-01-16T07:42:10;0.80;64.50
51215;DHT22;63849;47.546;19.254;2024-01-16T07:44:36;0.90;64.40
51215;DHT22;63849;47.546;19.254;2024-01-16T07:47:02;0.90;64.40
51215;DHT22;63849;47.546;19.254;2024-01-16T07:49:28;1.00;64.00
51215;DHT22;63849;47.546;19.254;2024-01-16T07:51:55;1.00;63.90
51215;DHT22;63849;47.546;19.254;2024-01-16T07:54:21;1.10;63.90
51215;DHT22;63849;47.546;19.254;2024-01-16T07:56:46;1.10;63.60
51215;DHT22;63849;47.546;19.254;2024-01-16T07:59:12;1.10;63.60
51215;DHT22;63849;47.546;19.254;2024-01-16T08:01:38;1.10;63.50
51215;DHT22;63849;47.546;19.254;2024-01-16T08:04:04;1.10;63.40
51215;DHT22;63849;47.546;19.254;2024-01-16T08:06:29;1.10;62.70
51215;DHT22;63849;47.546;19.254;2024-01-16T08:08:55;1.30;62.50
51215;DHT22;63849;47.546;19.254;2024-01-16T08:11:21;1.30;62.30
51215;DHT22;63849;47.546;19.254;2024-01-16T08:13:47;1.50;61.90
51215;DHT22;63849;47.546;19.254;2024-01-16T08:16:13;1.50;61.20
51215;DHT22;63849;47.546;19.254;2024-01-16T08:18:39;1.60;61.00
51215;DHT22;63849;47.546;19.254;2024-01-16T08:21:04;1.60;60.60
51215;DHT22;63849;47.546;19.254;2024-01-16T08:23:31;1.60;60.20
51215;DHT22;63849;47.546;19.254;2024-01-16T08:25:56;1.70;60.60
51215;DHT22;63849;47.546;19.254;2024-01-16T08:28:22;1.70;60.30
51215;DHT22;63849;47.546;19.254;2024-01-16T08:30:50;1.70;60.00
51215;DHT22;63849;47.546;19.254;2024-01-16T08:33:16;1.80;60.20
51215;DHT22;63849;47.546;19.254;2024-01-16T08:35:41;1.90;60.40
51215;DHT22;63849;47.546;19.254;2024-01-16T08:38:07;1.90;60.00
51215;DHT22;63849;47.546;19.254;2024-01-16T08:40:33;1.90;59.60
51215;DHT22;63849;47.546;19.254;2024-01-16T08:42:58;2.00;59.10
51215;DHT22;63849;47.546;19.254;2024-01-16T08:45:24;2.10;58.60
51215;DHT22;63849;47.546;19.254;2024-01-16T08:47:51;2.10;58.80
51215;DHT22;63849;47.546;19.254;2024-01-16T08:50:18;2.20;58.50
51215;DHT22;63849;47.546;19.254;2024-01-16T08:52:44;2.20;58.30
51215;DHT22;63849;47.546;19.254;2024-01-16T08:55:09;2.30;58.00
51215;DHT22;63849;47.546;19.254;2024-01-16T08:57:37;2.30;58.00
51215;DHT22;63849;47.546;19.254;2024-01-16T09:00:04;2.30;58.00
51215;DHT22;63849;47.546;19.254;2024-01-16T09:02:30;2.30;58.10
51215;DHT22;63849;47.546;19.254;2024-01-16T09:04:56;2.30;57.50
51215;DHT22;63849;47.546;19.254;2024-01-16T09:07:24;2.40;57.60
51215;DHT22;63849;47.546;19.254;2024-01-16T09:09:49;2.50;57.50
51215;DHT22;63849;47.546;19.254;2024-01-16T09:12:15;2.50;57.40
51215;DHT22;63849;47.546;19.254;2024-01-16T09:14:41;2.50;57.40
51215;DHT22;63849;47.546;19.254;2024-01-16T09:17:07;2.40;56.70
51215;DHT22;63849;47.546;19.254;2024-01-16T09:19:33;2.50;56.60
51215;DHT22;63849;47.546;19.254;2024-01-16T09:21:58;2.50;56.60
51215;DHT22;63849;47.546;19.254;2024-01-16T09:24:24;2.50;56.70
51215;DHT22;63849;47.546;19.254;2024-01-16T09:26:50;2.50;56.30
51215;DHT22;63849;47.546;19.254;2024-01-16T09:29:15;2.50;56.30
51215;DHT22;63849;47.546;19.254;2024-01-16T09:31:41;2.40;56.20
51215;DHT22;63849;47.546;19.254;2024-01-16T09:34:07;2.30;56.30
51215;DHT22;63849;47.546;19.254;2024-01-16T09:36:33;2.30;56.40
51215;DHT22;63849;47.546;19.254;2024-01-16T09:39:02;2.40;56.10
51215;DHT22;63849;47.546;19.254;2024-01-16T09:41:28;2.40;55.80
51215;DHT22;63849;47.546;19.254;2024-01-16T09:43:53;2.40;56.00
51215;DHT22;63849;47.546;19.254;2024-01-16T09:46:22;2.40;55.90
51215;DHT22;63849;47.546;19.254;2024-01-16T09:48:48;2.50;55.80
51215;DHT22;63849;47.546;19.254;2024-01-16T09:51:16;2.50;56.30
51215;DHT22;63849;47.546;19.254;2024-01-16T09:53:42;2.40;56.10
51215;DHT22;63849;47.546;19.254;2024-01-16T09:56:14;2.40;56.10
51215;DHT22;63849;47.546;19.254;2024-01-16T09:58:41;2.50;55.80
51215;DHT22;63849;47.546;19.254;2024-01-16T10:01:06;2.50;56.00
51215;DHT22;63849;47.546;19.254;2024-01-16T10:03:34;2.60;56.60
51215;DHT22;63849;47.546;19.254;2024-01-16T10:06:04;2.60;56.10
51215;DHT22;63849;47.546;19.254;2024-01-16T10:08:31;2.60;55.70
51215;DHT22;63849;47.546;19.254;2024-01-16T10:10:58;2.60;55.70
51215;DHT22;63849;47.546;19.254;2024-01-16T10:13:24;2.60;54.90
51215;DHT22;63849;47.546;19.254;2024-01-16T10:15:50;2.60;54.80
51215;DHT22;63849;47.546;19.254;2024-01-16T10:18:25;2.60;54.80
51215;DHT22;63849;47.546;19.254;2024-01-16T10:20:52;2.70;54.30
51215;DHT22;63849;47.546;19.254;2024-01-16T10:23:31;2.80;53.70
51215;DHT22;63849;47.546;19.254;2024-01-16T10:26:09;2.80;54.00
51215;DHT22;63849;47.546;19.254;2024-01-16T10:28:39;3.00;54.40
51215;DHT22;63849;47.546;19.254;2024-01-16T10:31:07;3.10;53.50
51215;DHT22;63849;47.546;19.254;2024-01-16T10:33:33;3.10;53.50
51215;DHT22;63849;47.546;19.254;2024-01-16T10:36:19;3.10;53.30
51215;DHT22;63849;47.546;19.254;2024-01-16T10:38:46;3.00;53.20
51215;DHT22;63849;47.546;19.254;2024-01-16T10:41:16;3.00;53.60
51215;DHT22;63849;47.546;19.254;2024-01-16T10:43:47;3.00;53.50
51215;DHT22;63849;47.546;19.254;2024-01-16T10:46:17;3.00;53.30
51215;DHT22;63849;47.546;19.254;2024-01-16T10:48:59;3.00;53.30
51215;DHT22;63849;47.546;19.254;2024-01-16T10:51:27;3.00;53.30
51215;DHT22;63849;47.546;19.254;2024-01-16T10:53:59;3.00;53.50
51215;DHT22;63849;47.546;19.254;2024-01-16T10:56:27;3.10;53.20
51215;DHT22;63849;47.546;19.254;2024-01-16T10:59:16;3.10;53.20
51215;DHT22;63849;47.546;19.254;2024-01-16T11:01:46;3.20;53.10
51215;DHT22;63849;47.546;19.254;2024-01-16T11:04:14;3.30;53.30
51215;DHT22;63849;47.546;19.254;2024-01-16T11:06:41;3.40;52.70
51215;DHT22;63849;47.546;19.254;2024-01-16T11:09:08;3.30;51.50
51215;DHT22;63849;47.546;19.254;2024-01-16T11:11:34;3.30;52.00
51215;DHT22;63849;47.546;19.254;2024-01-16T11:14:03;3.30;52.10
51215;DHT22;63849;47.546;19.254;2024-01-16T11:16:32;3.30;52.00
51215;DHT22;63849;47.546;19.254;2024-01-16T11:18:58;3.30;51.90
51215;DHT22;63849;47.546;19.254;2024-01-16T11:21:25;3.20;51.80
51215;DHT22;63849;47.546;19.254;2024-01-16T11:23:51;3.20;51.90
51215;DHT22;63849;47.546;19.254;2024-01-16T11:28:53;3.30;51.90
51215;DHT22;63849;47.546;19.254;2024-01-16T11:31:33;3.30;51.80
51215;DHT22;63849;47.546;19.254;2024-01-16T11:34:01;3.20;51.40
51215;DHT22;63849;47.546;19.254;2024-01-16T11:39:23;3.30;51.90
51215;DHT22;63849;47.546;19.254;2024-01-16T11:41:55;3.30;51.70
51215;DHT22;63849;47.546;19.254;2024-01-16T11:44:43;3.10;51.60
51215;DHT22;63849;47.546;19.254;2024-01-16T11:47:21;3.10;51.80
51215;DHT22;63849;47.546;19.254;2024-01-16T11:52:44;3.00;52.60
51215;DHT22;63849;47.546;19.254;2024-01-16T11:55:30;3.00;52.80
51215;DHT22;63849;47.546;19.254;2024-01-16T12:00:56;3.00;52.00
51215;DHT22;63849;47.546;19.254;2024-01-16T12:03:23;3.10;52.30
51215;DHT22;63849;47.546;19.254;2024-01-16T12:06:01;3.10;52.30
51215;DHT22;63849;47.546;19.254;2024-01-16T12:08:27;3.00;51.40
51215;DHT22;63849;47.546;19.254;2024-01-16T12:10:54;3.00;51.70
51215;DHT22;63849;47.546;19.254;2024-01-16T12:13:19;3.10;51.70
51215;DHT22;63849;47.546;19.254;2024-01-16T12:15:45;3.00;52.00
51215;DHT22;63849;47.546;19.254;2024-01-16T12:18:18;3.00;52.10
51215;DHT22;63849;47.546;19.254;2024-01-16T12:20:44;3.00;52.10
51215;DHT22;63849;47.546;19.254;2024-01-16T12:23:09;3.00;51.90
51215;DHT22;63849;47.546;19.254;2024-01-16T12:25:37;3.10;51.60
51215;DHT22;63849;47.546;19.254;2024-01-16T12:28:07;3.20;50.90
51215;DHT22;63849;47.546;19.254;2024-01-16T12:30:34;3.10;50.10
51215;DHT22;63849;47.546;19.254;2024-01-16T12:33:03;3.10;50.10
51215;DHT22;63849;47.546;19.254;2024-01-16T12:35:36;3.10;50.50
51215;DHT22;63849;47.546;19.254;2024-01-16T12:38:02;3.00;50.40
51215;DHT22;63849;47.546;19.254;2024-01-16T12:40:28;3.20;50.50
51215;DHT22;63849;47.546;19.254;2024-01-16T12:42:55;3.30;50.00
51215;DHT22;63849;47.546;19.254;2024-01-16T12:45:22;3.30;50.00
51215;DHT22;63849;47.546;19.254;2024-01-16T12:47:54;3.40;49.60
51215;DHT22;63849;47.546;19.254;2024-01-16T12:50:24;3.50;49.50
51215;DHT22;63849;47.546;19.254;2024-01-16T12:53:01;3.50;49.10
51215;DHT22;63849;47.546;19.254;2024-01-16T12:55:27;3.70;48.30
51215;DHT22;63849;47.546;19.254;2024-01-16T12:58:21;3.80;48.60
51215;DHT22;63849;47.546;19.254;2024-01-16T13:00:50;3.80;47.10
51215;DHT22;63849;47.546;19.254;2024-01-16T13:03:18;3.80;46.50
51215;DHT22;63849;47.546;19.254;2024-01-16T13:05:45;3.80;46.60
51215;DHT22;63849;47.546;19.254;2024-01-16T13:08:18;3.80;46.80
51215;DHT22;63849;47.546;19.254;2024-01-16T13:10:46;3.70;46.90
51215;DHT22;63849;47.546;19.254;2024-01-16T13:13:20;3.70;46.80
51215;DHT22;63849;47.546;19.254;2024-01-16T13:15:47;3.60;47.30
51215;DHT22;63849;47.546;19.254;2024-01-16T13:18:23;3.50;47.50
51215;DHT22;63849;47.546;19.254;2024-01-16T13:20:52;3.60;47.90
51215;DHT22;63849;47.546;19.254;2024-01-16T13:23:18;3.60;48.10
51215;DHT22;63849;47.546;19.254;2024-01-16T13:25:44;3.60;48.20
51215;DHT22;63849;47.546;19.254;2024-01-16T13:28:14;3.60;48.30
51215;DHT22;63849;47.546;19.254;2024-01-16T13:30:41;3.50;48.20
51215;DHT22;63849;47.546;19.254;2024-01-16T13:33:07;3.40;48.30
51215;DHT22;63849;47.546;19.254;2024-01-16T13:35:38;3.30;48.10
51215;DHT22;63849;47.546;19.254;2024-01-16T13:38:05;3.30;48.50
51215;DHT22;63849;47.546;19.254;2024-01-16T13:40:31;3.30;48.70
51215;DHT22;63849;47.546;19.254;2024-01-16T13:42:57;3.30;48.70
51215;DHT22;63849;47.546;19.254;2024-01-16T13:45:23;3.30;48.10
51215;DHT22;63849;47.546;19.254;2024-01-16T13:47:49;3.30;48.50
51215;DHT22;63849;47.546;19.254;2024-01-16T13:50:15;3.30;48.60
51215;DHT22;63849;47.546;19.254;2024-01-16T13:52:43;3.40;48.60
51215;DHT22;63849;47.546;19.254;2024-01-16T13:55:09;3.40;48.30
51215;DHT22;63849;47.546;19.254;2024-01-16T13:57:35;3.50;48.20
51215;DHT22;63849;47.546;19.254;2024-01-16T14:00:06;3.50;47.80
51215;DHT22;63849;47.546;19.254;2024-01-16T14:02:32;3.60;47.80
51215;DHT22;63849;47.546;19.254;2024-01-16T14:05:00;3.70;48.00
51215;DHT22;63849;47.546;19.254;2024-01-16T14:07:26;3.70;47.40
51215;DHT22;63849;47.546;19.254;2024-01-16T14:09:51;3.70;46.90
51215;DHT22;63849;47.546;19.254;2024-01-16T14:12:17;3.80;47.00
51215;DHT22;63849;47.546;19.254;2024-01-16T14:14:44;3.80;46.50
51215;DHT22;63849;47.546;19.254;2024-01-16T14:17:11;3.80;46.80
51215;DHT22;63849;47.546;19.254;2024-01-16T14:19:37;3.80;47.10
51215;DHT22;63849;47.546;19.254;2024-01-16T14:22:04;3.80;46.80
51215;DHT22;63849;47.546;19.254;2024-01-16T14:24:29;3.80;47.00
51215;DHT22;63849;47.546;19.254;2024-01-16T14:26:55;3.70;47.20
51215;DHT22;63849;47.546;19.254;2024-01-16T14:29:22;3.80;47.70
51215;DHT22;63849;47.546;19.254;2024-01-16T14:31:48;3.70;47.10
51215;DHT22;63849;47.546;19.254;2024-01-16T14:34:14;3.60;46.90
51215;DHT22;63849;47.546;19.254;2024-01-16T14:36:41;3.60;46.60
51215;DHT22;63849;47.546;19.254;2024-01-16T14:39:07;3.60;46.70
51215;DHT22;63849;47.546;19.254;2024-01-16T14:41:41;3.50;46.70
51215;DHT22;63849;47.546;19.254;2024-01-16T14:44:09;3.50;47.00
51215;DHT22;63849;47.546;19.254;2024-01-16T14:46:40;3.50;47.30
51215;DHT22;63849;47.546;19.254;2024-01-16T14:49:08;3.50;47.20
51215;DHT22;63849;47.546;19.254;2024-01-16T14:51:34;3.50;47.80
51215;DHT22;63849;47.546;19.254;2024-01-16T14:54:00;3.40;47.90
51215;DHT22;63849;47.546;19.254;2024-01-16T14:56:27;3.30;47.60
51215;DHT22;63849;47.546;19.254;2024-01-16T14:58:53;3.30;47.50
51215;DHT22;63849;47.546;19.254;2024-01-16T15:01:18;3.20;47.80
51215;DHT22;63849;47.546;19.254;2024-01-16T15:03:44;3.20;48.30
51215;DHT22;63849;47.546;19.254;2024-01-16T15:06:10;3.10;48.50
51215;DHT22;63849;47.546;19.254;2024-01-16T15:08:38;3.10;48.40
51215;DHT22;63849;47.546;19.254;2024-01-16T15:11:04;3.00;48.30
51215;DHT22;63849;47.546;19.254;2024-01-16T15:13:31;3.00;48.80
51215;DHT22;63849;47.546;19.254;2024-01-16T15:15:57;2.90;48.70
51215;DHT22;63849;47.546;19.254;2024-01-16T15:18:22;2.80;48.60
51215;DHT22;63849;47.546;19.254;2024-01-16T15:20:48;2.80;48.60
51215;DHT22;63849;47.546;19.254;2024-01-16T15:23:14;2.70;49.00
51215;DHT22;63849;47.546;19.254;2024-01-16T15:25:39;2.70;49.00
51215;DHT22;63849;47.546;19.254;2024-01-16T15:28:05;2.60;49.20
51215;DHT22;63849;47.546;19.254;2024-01-16T15:30:31;2.50;49.40
51215;DHT22;63849;47.546;19.254;2024-01-16T15:32:58;2.50;49.50
51215;DHT22;63849;47.546;19.254;2024-01-16T15:35:24;2.40;49.60
51215;DHT22;63849;47.546;19.254;2024-01-16T15:37:50;2.40;49.90
51215;DHT22;63849;47.546;19.254;2024-01-16T15:40:15;2.30;50.00